TimeCST,TemperatureF,Dew PointF,Humidity,Sea Level PressureIn,VisibilityMPH,Wind Direction,Wind SpeedMPH,Gust SpeedMPH,PrecipitationIn,Events,Conditions,WindDirDegrees,DateUTC
12:26 AM,21.2,15.8,80,29.81,10.0,North,25.3,36.8,N/A,,Overcast,350,2012-11-11 06:26:00
12:53 AM,19.0,14.0,81,29.90,10.0,NNW,23.0,28.8,N/A,,Scattered Clouds,330,2012-11-11 06:53:00
1:53 AM,18.0,12.0,78,29.93,10.0,NNW,19.6,29.9,N/A,,Scattered Clouds,340,2012-11-11 07:53:00
2:53 AM,17.1,10.9,77,29.95,10.0,NNW,18.4,24.2,N/A,,Clear,330,2012-11-11 08:53:00
3:53 AM,16.0,9.0,74,29.96,10.0,NNW,20.7,28.8,N/A,,Clear,330,2012-11-11 09:53:00
4:53 AM,16.0,9.0,74,29.98,10.0,NNW,20.7,26.5,N/A,,Clear,330,2012-11-11 10:53:00
5:53 AM,15.1,8.1,74,30.00,10.0,NNW,15.0,27.6,N/A,,Clear,330,2012-11-11 11:53:00
6:53 AM,14.0,7.0,74,30.02,10.0,NNW,19.6,26.5,N/A,,Clear,330,2012-11-11 12:53:00
7:53 AM,14.0,5.0,67,30.04,10.0,NNW,21.9,34.5,N/A,,Clear,330,2012-11-11 13:53:00
8:53 AM,16.0,6.1,65,30.07,10.0,NNW,24.2,32.2,N/A,,Clear,340,2012-11-11 14:53:00
10:53 AM,21.9,10.9,63,30.11,10.0,NW,17.3,25.3,N/A,,Clear,320,2012-11-11 16:53:00
11:53 AM,25.0,10.9,55,30.10,10.0,NNW,19.6,-,N/A,,Clear,330,2012-11-11 17:53:00
12:53 PM,27.0,12.0,53,30.11,10.0,NW,13.8,-,N/A,,Clear,310,2012-11-11 18:53:00
1:53 PM,30.0,12.9,49,30.09,10.0,NW,15.0,20.7,N/A,,Clear,310,2012-11-11 19:53:00
2:53 PM,32.0,10.0,40,30.09,10.0,NW,18.4,28.8,N/A,,Clear,320,2012-11-11 20:53:00
3:53 PM,30.9,9.0,40,30.11,10.0,NNW,15.0,25.3,N/A,,Clear,330,2012-11-11 21:53:00
4:53 PM,28.9,9.0,43,30.14,10.0,NW,13.8,-,N/A,,Clear,310,2012-11-11 22:53:00
5:53 PM,23.0,9.0,55,30.17,10.0,WNW,4.6,-,N/A,,Clear,300,2012-11-11 23:53:00
6:53 PM,23.0,10.0,58,30.20,10.0,West,9.2,-,N/A,,Clear,280,2012-11-12 00:53:00
7:53 PM,19.0,10.0,68,30.22,10.0,West,8.1,-,N/A,,Clear,270,2012-11-12 01:53:00
9:53 PM,19.9,10.9,68,30.25,10.0,West,10.4,-,N/A,,Clear,280,2012-11-12 03:53:00
10:53 PM,17.1,10.0,74,30.27,10.0,WNW,6.9,-,N/A,,Clear,290,2012-11-12 04:53:00
11:53 PM,15.8,8.6,73,30.16,10.0,West,8.1,-,N/A,,Clear,280,2012-11-12 05:53:00